createdAt,value
2022-12-03T00:01:50.854Z,101605.22
2022-12-03T00:04:17.279Z,101608.00
2022-12-03T00:06:43.649Z,101604.41
2022-12-03T00:09:10.000Z,101605.22
2022-12-03T00:11:36.378Z,101613.22
2022-12-03T00:14:02.901Z,101599.41
2022-12-03T00:16:29.495Z,101598.59
2022-12-03T00:18:56.061Z,101609.34
2022-12-03T00:21:24.641Z,101600.22
2022-12-03T00:23:51.635Z,101608.22
2022-12-03T00:26:17.981Z,101603.81
2022-12-03T00:28:44.330Z,101602.69
2022-12-03T00:31:10.853Z,101599.94
2022-12-03T00:33:37.194Z,101601.88
2022-12-03T00:36:03.692Z,101594.97
2022-12-03T00:38:30.034Z,101600.50
2022-12-03T00:40:56.439Z,101593.53
2022-12-03T00:43:22.759Z,101594.66
2022-12-03T00:45:49.137Z,101602.44
2022-12-03T00:48:15.644Z,101592.19
2022-12-03T00:50:42.026Z,101597.72
2022-12-03T00:53:08.388Z,101596.91
2022-12-03T00:55:34.748Z,101590.56
2022-12-03T00:58:01.100Z,101600.50
2022-12-03T01:00:27.602Z,101591.91
2022-12-03T01:02:54.313Z,101600.19
2022-12-03T01:05:20.753Z,101595.22
2022-12-03T01:07:47.243Z,101600.75
2022-12-03T01:10:14.398Z,101596.31
2022-12-03T01:12:41.153Z,101597.97
2022-12-03T01:15:08.306Z,101600.75
2022-12-03T01:17:34.644Z,101602.94
2022-12-03T01:20:02.037Z,101597.44
2022-12-03T01:22:28.377Z,101599.38
2022-12-03T01:24:55.495Z,101600.50
2022-12-03T01:27:22.095Z,101604.06
2022-12-03T01:29:48.455Z,101604.88
2022-12-03T01:32:18.162Z,101605.72
2022-12-03T01:34:51.162Z,101603.50
2022-12-03T01:37:19.530Z,101594.13
2022-12-03T01:39:45.886Z,101602.69
2022-12-03T01:42:17.382Z,101594.72
2022-12-03T01:44:44.804Z,101598.28
2022-12-03T01:47:15.805Z,101601.66
2022-12-03T01:49:46.508Z,101598.59
2022-12-03T01:52:16.011Z,101597.78
2022-12-03T01:54:46.270Z,101593.06
2022-12-03T01:57:24.798Z,101599.16
2022-12-03T01:59:52.520Z,101600.78
2022-12-03T02:02:25.533Z,101597.22
2022-12-03T02:04:53.420Z,101605.22
2022-12-03T02:07:26.347Z,101601.09
2022-12-03T02:09:55.303Z,101608.56
2022-12-03T02:12:31.761Z,101595.06
2022-12-03T02:14:59.585Z,101605.81
2022-12-03T02:17:26.980Z,101602.50
2022-12-03T02:19:54.924Z,101608.03
2022-12-03T02:22:37.191Z,101597.25
2022-12-03T02:25:20.931Z,101602.78
2022-12-03T02:27:48.168Z,101600.28
2022-12-03T02:30:18.351Z,101608.84
2022-12-03T02:32:45.305Z,101598.91
2022-12-03T02:35:36.546Z,101597.03
2022-12-03T02:38:10.920Z,101600.88
2022-12-03T02:40:38.121Z,101591.78
2022-12-03T02:43:05.488Z,101591.25
2022-12-03T02:45:36.091Z,101587.94
2022-12-03T02:48:06.946Z,101582.19
2022-12-03T02:50:36.031Z,101585.22
2022-12-03T02:53:07.065Z,101582.47
2022-12-03T02:55:37.397Z,101579.72
2022-12-03T02:58:05.299Z,101591.03
2022-12-03T03:00:33.454Z,101587.97
2022-12-03T03:03:01.376Z,101583.28
2022-12-03T03:05:28.276Z,101586.91
2022-12-03T03:07:58.351Z,101585.78
2022-12-03T03:10:26.190Z,101584.13
2022-12-03T03:12:54.909Z,101587.72
2022-12-03T03:15:22.385Z,101580.53
2022-12-03T03:17:49.147Z,101575.31
2022-12-03T03:20:15.638Z,101581.94
2022-12-03T03:22:43.391Z,101578.63
2022-12-03T03:25:13.374Z,101570.63
2022-12-03T03:27:41.676Z,101573.69
2022-12-03T03:30:09.681Z,101571.50
2022-12-03T03:32:37.289Z,101574.25
2022-12-03T03:35:04.100Z,101572.31
2022-12-03T03:37:31.006Z,101566.28
2022-12-03T03:39:59.385Z,101575.38
2022-12-03T03:42:25.974Z,101571.81
2022-12-03T03:44:52.725Z,101574.84
2022-12-03T03:47:20.208Z,101569.03
2022-12-03T03:49:48.024Z,101572.63
2022-12-03T03:52:14.865Z,101566.28
2022-12-03T03:54:41.786Z,101561.59
2022-12-03T03:57:08.466Z,101577.03
2022-12-03T03:59:35.079Z,101568.75
2022-12-03T04:02:01.417Z,101569.88
2022-12-03T04:04:33.429Z,101570.97
2022-12-03T04:07:01.430Z,101564.34
2022-12-03T04:09:27.803Z,101565.16
2022-12-03T04:12:12.841Z,101561.28
2022-12-03T04:14:39.188Z,101560.47
2022-12-03T04:17:05.687Z,101551.38
2022-12-03T04:19:32.065Z,101552.19
2022-12-03T04:22:17.215Z,101558.53
2022-12-03T04:24:43.591Z,101554.94
2022-12-03T04:27:28.920Z,101547.78
2022-12-03T04:29:55.273Z,101552.47
2022-12-03T04:32:40.335Z,101557.19
2022-12-03T04:35:26.679Z,101557.44
2022-12-03T04:37:53.171Z,101554.97
2022-12-03T04:40:38.249Z,101550.59
2022-12-03T04:43:04.753Z,101547.00
2022-12-03T04:45:31.289Z,101548.94
2022-12-03T04:47:57.665Z,101540.66
2022-12-03T04:50:24.225Z,101535.41
2022-12-03T04:52:50.725Z,101539.00
2022-12-03T04:55:17.060Z,101537.09
2022-12-03T04:57:43.462Z,101542.88
2022-12-03T05:00:10.518Z,101539.28
2022-12-03T05:02:36.931Z,101536.00
2022-12-03T05:05:03.751Z,101536.00
2022-12-03T05:07:30.447Z,101537.13
2022-12-03T05:09:56.809Z,101538.22
2022-12-03T05:12:23.304Z,101536.88
2022-12-03T05:14:49.651Z,101539.31
2022-12-03T05:17:16.157Z,101536.03
2022-12-03T05:20:01.215Z,101536.31
2022-12-03T05:22:27.589Z,101529.97
2022-12-03T05:24:54.137Z,101534.97
2022-12-03T05:27:23.916Z,101539.66
2022-12-03T05:29:51.052Z,101536.34
2022-12-03T05:32:17.352Z,101532.50
2022-12-03T05:34:43.649Z,101531.66
2022-12-03T05:37:10.206Z,101537.47
2022-12-03T05:39:37.914Z,101539.69
2022-12-03T05:42:23.474Z,101534.19
2022-12-03T05:44:50.030Z,101547.97
2022-12-03T05:47:16.564Z,101545.47
2022-12-03T05:49:43.082Z,101543.03
2022-12-03T05:52:09.576Z,101557.63
2022-12-03T05:54:35.968Z,101538.63
2022-12-03T05:57:02.346Z,101545.78
2022-12-03T05:59:28.740Z,101542.50
2022-12-03T06:01:55.282Z,101548.56
2022-12-03T06:04:21.768Z,101533.13
2022-12-03T06:06:48.170Z,101538.09
2022-12-03T06:09:14.720Z,101535.63
2022-12-03T06:11:41.265Z,101542.28
2022-12-03T06:14:07.858Z,101544.22
2022-12-03T06:16:34.223Z,101545.59
2022-12-03T06:19:00.796Z,101550.84
2022-12-03T06:21:27.285Z,101542.03
2022-12-03T06:23:53.601Z,101547.84
2022-12-03T06:26:20.166Z,101542.91
2022-12-03T06:28:47.621Z,101545.94
2022-12-03T06:31:14.208Z,101536.59
2022-12-03T06:33:40.579Z,101536.59
2022-12-03T06:36:07.164Z,101539.09
2022-12-03T06:38:35.703Z,101533.56
2022-12-03T06:41:02.094Z,101531.38
2022-12-03T06:43:28.515Z,101533.00
2022-12-03T06:45:55.022Z,101529.66
2022-12-03T06:48:21.378Z,101539.63
2022-12-03T06:50:47.779Z,101529.41
2022-12-03T06:53:14.175Z,101538.78
2022-12-03T06:55:40.580Z,101535.19
2022-12-03T06:58:07.084Z,101535.19
2022-12-03T07:00:33.596Z,101538.78
2022-12-03T07:03:00.033Z,101537.94
2022-12-03T07:05:26.664Z,101539.88
2022-12-03T07:07:55.527Z,101537.41
2022-12-03T07:10:22.485Z,101538.25
2022-12-03T07:12:49.370Z,101538.53
2022-12-03T07:15:15.874Z,101534.66
2022-12-03T07:17:42.196Z,101540.16
2022-12-03T07:20:09.784Z,101533.00
2022-12-03T07:22:36.246Z,101530.25
2022-12-03T07:25:02.966Z,101534.66
2022-12-03T07:27:29.698Z,101528.84
2022-12-03T07:29:56.390Z,101533.28
2022-12-03T07:32:22.754Z,101526.91
2022-12-03T07:34:49.120Z,101529.41
2022-12-03T07:37:19.969Z,101519.19
2022-12-03T07:39:52.471Z,101522.78
2022-12-03T07:42:18.986Z,101517.25
2022-12-03T07:44:45.337Z,101519.72
2022-12-03T07:47:12.373Z,101518.63
2022-12-03T07:49:38.758Z,101519.47
2022-12-03T07:52:07.021Z,101519.47
2022-12-03T07:54:33.542Z,101526.31
2022-12-03T07:57:01.795Z,101516.41
2022-12-03T07:59:29.193Z,101517.75
2022-12-03T08:01:55.927Z,101521.34
2022-12-03T08:04:22.413Z,101517.47
2022-12-03T08:06:49.104Z,101521.88
2022-12-03T08:09:16.317Z,101513.31
2022-12-03T08:11:45.410Z,101512.78
2022-12-03T08:14:13.975Z,101515.00
2022-12-03T08:16:43.014Z,101524.59
2022-12-03T08:19:11.492Z,101515.22
2022-12-03T08:21:38.419Z,101517.72
2022-12-03T08:24:19.355Z,101522.09
2022-12-03T08:26:48.970Z,101515.19
2022-12-03T08:29:18.632Z,101522.63
2022-12-03T08:31:53.304Z,101517.94
2022-12-03T08:34:26.680Z,101510.78
2022-12-03T08:37:06.215Z,101508.84
2022-12-03T08:39:39.506Z,101514.63
2022-12-03T08:42:31.739Z,101513.78
2022-12-03T08:45:28.251Z,101511.84
2022-12-03T08:48:00.534Z,101524.22
2022-12-03T08:50:30.066Z,101527.56
2022-12-03T08:53:08.147Z,101528.66
2022-12-03T08:55:37.454Z,101519.28
2022-12-03T08:58:44.481Z,101520.09
2022-12-03T09:01:11.833Z,101525.56
2022-12-03T09:03:54.947Z,101529.97
2022-12-03T09:06:22.686Z,101517.56
2022-12-03T09:08:49.273Z,101523.88
2022-12-03T09:11:16.295Z,101516.72
2022-12-03T09:13:42.812Z,101508.16
2022-12-03T09:16:09.245Z,101517.25
2022-12-03T09:18:35.926Z,101515.31
2022-12-03T09:21:02.368Z,101517.81
2022-12-03T09:23:28.859Z,101505.09
2022-12-03T09:25:57.409Z,101520.56
2022-12-03T09:28:23.929Z,101524.97
2022-12-03T09:30:50.474Z,101527.72
2022-12-03T09:33:16.828Z,101528.56
2022-12-03T09:35:43.519Z,101532.13
2022-12-03T09:38:09.939Z,101528.25
2022-12-03T09:40:36.372Z,101526.59
2022-12-03T09:43:03.053Z,101527.94
2022-12-03T09:45:29.402Z,101513.34
2022-12-03T09:47:55.971Z,101519.66
2022-12-03T09:50:26.661Z,101521.63
2022-12-03T09:52:56.834Z,101515.28
2022-12-03T09:55:26.849Z,101517.75
2022-12-03T09:57:56.489Z,101503.66
2022-12-03T10:00:26.593Z,101500.91
2022-12-03T10:02:58.167Z,101502.25
2022-12-03T10:05:25.473Z,101501.97
2022-12-03T10:07:52.756Z,101496.72
2022-12-03T10:10:25.269Z,101494.81
2022-12-03T10:12:52.627Z,101486.75
2022-12-03T10:15:21.566Z,101488.97
2022-12-03T10:17:49.728Z,101480.09
2022-12-03T10:20:19.935Z,101476.22
2022-12-03T10:22:48.852Z,101490.84
2022-12-03T10:25:21.244Z,101474.59
2022-12-03T10:28:02.321Z,101478.16
2022-12-03T10:30:29.560Z,101465.69
2022-12-03T10:32:58.531Z,101460.44
2022-12-03T10:35:36.733Z,101463.72
2022-12-03T10:38:06.620Z,101465.06
2022-12-03T10:40:36.618Z,101451.78
2022-12-03T10:43:20.746Z,101450.69
2022-12-03T10:45:48.271Z,101453.41
2022-12-03T10:48:26.180Z,101449.78
2022-12-03T10:51:01.814Z,101448.09
2022-12-03T10:53:31.012Z,101442.31
2022-12-03T10:56:01.761Z,101438.94
2022-12-03T10:58:31.093Z,101437.00
2022-12-03T11:00:59.415Z,101438.66
2022-12-03T11:03:29.381Z,101424.00
2022-12-03T11:05:58.666Z,101419.91
2022-12-03T11:08:27.677Z,101414.38
2022-12-03T11:11:07.422Z,101420.22
2022-12-03T11:13:36.595Z,101424.63
2022-12-03T11:16:05.588Z,101419.09
2022-12-03T11:18:37.987Z,101418.28
2022-12-03T11:21:10.335Z,101416.03
2022-12-03T11:23:45.915Z,101415.22
2022-12-03T11:26:19.177Z,101414.09
2022-12-03T11:28:46.218Z,101412.69
2022-12-03T11:31:37.205Z,101418.47
2022-12-03T11:34:41.757Z,101409.94
2022-12-03T11:37:11.195Z,101408.50
2022-12-03T11:39:49.659Z,101408.50
2022-12-03T11:42:28.276Z,101405.75
2022-12-03T11:45:04.060Z,101399.94
2022-12-03T11:47:37.660Z,101396.34
2022-12-03T11:50:28.850Z,101400.22
2022-12-03T11:53:12.976Z,101400.47
2022-12-03T11:55:44.909Z,101399.06
2022-12-03T11:58:24.208Z,101395.44
2022-12-03T12:01:01.975Z,101391.03
2022-12-03T12:03:38.662Z,101390.22
2022-12-03T12:06:06.985Z,101393.00
2022-12-03T12:08:36.943Z,101383.88
2022-12-03T12:11:03.901Z,101378.38
2022-12-03T12:13:30.426Z,101373.66
2022-12-03T12:16:07.995Z,101368.44
2022-12-03T12:18:41.889Z,101367.91
2022-12-03T12:21:42.928Z,101366.81
2022-12-03T12:24:45.748Z,101368.13
2022-12-03T12:27:17.510Z,101356.78
2022-12-03T12:29:47.052Z,101356.19
2022-12-03T12:32:16.114Z,101349.84
2022-12-03T12:34:44.198Z,101349.56
2022-12-03T12:37:14.403Z,101348.72
2022-12-03T12:39:41.085Z,101344.84
2022-12-03T12:42:38.148Z,101343.50
2022-12-03T12:45:07.493Z,101353.13
2022-12-03T12:47:37.106Z,101343.50
2022-12-03T12:50:10.949Z,101339.69
2022-12-03T12:52:48.900Z,101339.19
2022-12-03T12:55:16.753Z,101340.81
2022-12-03T12:57:44.332Z,101336.13
2022-12-03T13:00:22.098Z,101334.16
2022-12-03T13:02:56.627Z,101332.00
2022-12-03T13:05:24.263Z,101330.91
2022-12-03T13:07:53.162Z,101335.06
2022-12-03T13:10:27.457Z,101323.19
2022-12-03T13:12:54.388Z,101321.56
2022-12-03T13:15:47.275Z,101322.94
2022-12-03T13:18:24.365Z,101312.72
2022-12-03T13:20:51.347Z,101309.69
2022-12-03T13:23:30.852Z,101313.53
2022-12-03T13:26:07.142Z,101317.66
2022-12-03T13:28:41.447Z,101318.19
2022-12-03T13:31:25.916Z,101316.53
2022-12-03T13:33:53.518Z,101313.19
2022-12-03T13:36:22.758Z,101310.44
2022-12-03T13:38:49.691Z,101304.59
2022-12-03T13:41:40.890Z,101303.28
2022-12-03T13:44:16.912Z,101300.28
2022-12-03T13:46:44.533Z,101297.81
2022-12-03T13:49:23.893Z,101297.91
2022-12-03T13:51:51.070Z,101299.00
2022-12-03T13:54:26.095Z,101299.59
2022-12-03T13:56:52.459Z,101292.41
2022-12-03T13:59:24.473Z,101299.38
2022-12-03T14:01:52.751Z,101294.66
2022-12-03T14:04:19.133Z,101293.84
2022-12-03T14:06:45.865Z,101286.97
2022-12-03T14:09:13.308Z,101290.56
2022-12-03T14:11:59.599Z,101278.41
2022-12-03T14:14:25.963Z,101290.56
2022-12-03T14:16:56.774Z,101287.81
2022-12-03T14:19:26.214Z,101286.97
2022-12-03T14:21:54.420Z,101291.66
2022-12-03T14:24:21.019Z,101285.03
2022-12-03T14:26:47.652Z,101289.44
2022-12-03T14:29:14.012Z,101291.09
2022-12-03T14:31:40.436Z,101292.72
2022-12-03T14:34:06.876Z,101282.50
2022-12-03T14:36:48.801Z,101278.59
2022-12-03T14:39:15.221Z,101270.31
2022-12-03T14:42:00.125Z,101273.94
2022-12-03T14:44:26.658Z,101276.69
2022-12-03T14:46:57.006Z,101279.44
2022-12-03T14:49:24.422Z,101286.63
2022-12-03T14:51:50.990Z,101289.66
2022-12-03T14:54:17.384Z,101290.50
2022-12-03T14:56:45.152Z,101286.06
2022-12-03T14:59:11.897Z,101288.84
2022-12-03T15:01:38.342Z,101286.38
2022-12-03T15:04:05.141Z,101282.28
2022-12-03T15:06:31.586Z,101282.28
2022-12-03T15:08:57.967Z,101283.38
2022-12-03T15:11:24.423Z,101281.75
2022-12-03T15:13:50.949Z,101283.44
2022-12-03T15:16:17.512Z,101297.84
2022-12-03T15:18:43.891Z,101291.78
2022-12-03T15:21:11.869Z,101291.28
2022-12-03T15:23:40.596Z,101290.47
2022-12-03T15:26:09.737Z,101292.69
2022-12-03T15:28:37.287Z,101281.63
2022-12-03T15:31:03.717Z,101281.38
2022-12-03T15:33:30.353Z,101287.97
2022-12-03T15:35:59.245Z,101283.88
2022-12-03T15:38:25.624Z,101274.47
2022-12-03T15:40:52.228Z,101265.38
2022-12-03T15:43:18.673Z,101272.84
2022-12-03T15:45:45.061Z,101268.72
2022-12-03T15:48:13.407Z,101271.47
2022-12-03T15:50:41.008Z,101279.25
2022-12-03T15:53:07.482Z,101274.53
2022-12-03T15:55:34.143Z,101276.50
2022-12-03T15:58:00.497Z,101272.91
2022-12-03T16:00:28.851Z,101281.47
2022-12-03T16:02:55.284Z,101272.38
2022-12-03T16:05:22.437Z,101266.03
2022-12-03T16:07:48.818Z,101274.31
2022-12-03T16:10:43.553Z,101277.94
2022-12-03T16:13:09.902Z,101282.88
2022-12-03T16:15:36.315Z,101279.81
2022-12-03T16:18:03.275Z,101274.59
2022-12-03T16:20:29.872Z,101268.28
2022-12-03T16:22:56.242Z,101284.81
2022-12-03T16:25:22.710Z,101276.81
2022-12-03T16:27:49.227Z,101283.78
2022-12-03T16:30:15.840Z,101285.47
2022-12-03T16:32:42.219Z,101280.78
2022-12-03T16:35:08.844Z,101284.94
2022-12-03T16:37:35.656Z,101282.47
2022-12-03T16:40:02.793Z,101286.34
2022-12-03T16:42:29.321Z,101279.19
2022-12-03T16:45:04.805Z,101285.00
2022-12-03T16:47:34.101Z,101279.75
2022-12-03T16:50:01.891Z,101287.53
2022-12-03T16:52:28.553Z,101278.44
2022-12-03T16:54:54.932Z,101281.75
2022-12-03T16:57:21.463Z,101282.88
2022-12-03T16:59:47.771Z,101277.38
2022-12-03T17:02:14.260Z,101276.84
2022-12-03T17:04:40.704Z,101274.59
2022-12-03T17:07:07.072Z,101282.06
2022-12-03T17:09:33.413Z,101269.41
2022-12-03T17:12:00.031Z,101266.63
2022-12-03T17:14:32.877Z,101270.22
2022-12-03T17:16:59.725Z,101271.03
2022-12-03T17:19:26.241Z,101276.31
2022-12-03T17:21:53.920Z,101279.88
2022-12-03T17:24:21.261Z,101269.97
2022-12-03T17:26:47.619Z,101270.78
2022-12-03T17:29:14.247Z,101265.03
2022-12-03T17:31:42.617Z,101264.22
2022-12-03T17:34:09.482Z,101266.44
2022-12-03T17:36:35.831Z,101259.28
2022-12-03T17:39:02.240Z,101260.94
2022-12-03T17:41:28.815Z,101257.34
2022-12-03T17:43:55.340Z,101261.25
2022-12-03T17:46:21.833Z,101251.84
2022-12-03T17:48:48.449Z,101260.13
2022-12-03T17:51:14.950Z,101252.13
2022-12-03T17:53:41.266Z,101241.38
2022-12-03T17:56:07.827Z,101250.78
2022-12-03T17:58:34.645Z,101254.34
2022-12-03T18:01:03.055Z,101257.13
2022-12-03T18:03:30.056Z,101250.78
2022-12-03T18:05:56.729Z,101250.47
2022-12-03T18:08:23.436Z,101248.03
2022-12-03T18:10:50.316Z,101250.84
2022-12-03T18:13:16.751Z,101250.53
2022-12-03T18:15:43.281Z,101242.25
2022-12-03T18:18:10.185Z,101241.75
2022-12-03T18:20:36.810Z,101234.59
2022-12-03T18:23:03.631Z,101237.63
2022-12-03T18:25:30.321Z,101237.63
2022-12-03T18:27:57.211Z,101234.88
2022-12-03T18:30:24.118Z,101240.38
2022-12-03T18:32:51.015Z,101231.28
2022-12-03T18:35:18.199Z,101240.38
2022-12-03T18:37:44.917Z,101237.09
2022-12-03T18:40:23.838Z,101235.22
2022-12-03T18:42:50.594Z,101231.34
2022-12-03T18:45:17.270Z,101230.53
2022-12-03T18:47:44.249Z,101239.09
2022-12-03T18:50:11.772Z,101230.28
2022-12-03T18:52:38.716Z,101230.28
2022-12-03T18:55:07.657Z,101229.75
2022-12-03T18:57:33.984Z,101217.91
2022-12-03T19:00:00.407Z,101226.19
2022-12-03T19:03:00.729Z,101219.84
2022-12-03T19:05:13.693Z,101222.31
2022-12-03T19:07:40.266Z,101219.84
2022-12-03T19:10:07.575Z,101215.16
2022-12-03T19:12:34.070Z,101220.66
2022-12-03T19:15:00.721Z,101219.84
2022-12-03T19:17:27.435Z,101221.19
2022-12-03T19:19:54.673Z,101220.66
2022-12-03T19:22:21.622Z,101214.34
2022-12-03T19:24:47.961Z,101228.63
2022-12-03T19:27:14.357Z,101223.13
2022-12-03T19:29:40.891Z,101217.63
2022-12-03T19:32:07.481Z,101214.84
2022-12-03T19:34:34.909Z,101225.88
2022-12-03T19:37:02.631Z,101225.88
2022-12-03T19:39:29.113Z,101220.66
2022-12-03T19:41:55.630Z,101224.25
2022-12-03T19:44:21.990Z,101221.50
2022-12-03T19:46:49.827Z,101223.94
2022-12-03T19:49:18.443Z,101227.53
2022-12-03T19:51:44.995Z,101229.72
2022-12-03T19:54:11.957Z,101227.75
2022-12-03T19:56:38.775Z,101226.13
2022-12-03T19:59:05.397Z,101225.00
2022-12-03T20:01:35.746Z,101236.84
2022-12-03T20:04:04.215Z,101228.59
2022-12-03T20:06:32.009Z,101230.22
2022-12-03T20:09:01.025Z,101228.28
2022-12-03T20:11:30.525Z,101229.41
2022-12-03T20:14:01.265Z,101232.16
2022-12-03T20:16:28.797Z,101226.66
2022-12-03T20:19:01.899Z,101226.94
2022-12-03T20:21:33.790Z,101223.88
2022-12-03T20:24:00.625Z,101222.78
2022-12-03T20:26:27.734Z,101224.44
2022-12-03T20:28:55.167Z,101231.03
2022-12-03T20:31:25.870Z,101222.25
2022-12-03T20:33:57.140Z,101221.44
2022-12-03T20:36:24.794Z,101217.84
2022-12-03T20:38:56.095Z,101219.78
2022-12-03T20:41:23.057Z,101223.06
2022-12-03T20:43:50.036Z,101218.69
2022-12-03T20:46:23.107Z,101222.25
2022-12-03T20:48:49.454Z,101216.44
2022-12-03T20:51:19.340Z,101213.16
2022-12-03T20:53:46.317Z,101213.97
2022-12-03T20:56:33.682Z,101209.03
2022-12-03T20:59:02.358Z,101203.53
2022-12-03T21:01:28.918Z,101209.84
2022-12-03T21:03:59.523Z,101212.91
2022-12-03T21:06:28.151Z,101201.88
2022-12-03T21:08:55.422Z,101204.34
2022-12-03T21:11:24.113Z,101207.94
2022-12-03T21:13:51.061Z,101201.31
2022-12-03T21:16:45.446Z,101201.59
2022-12-03T21:19:10.636Z,101197.44
2022-12-03T21:21:37.068Z,101197.44
2022-12-03T21:24:03.557Z,101191.91
2022-12-03T21:26:29.909Z,101182.00
2022-12-03T21:28:56.262Z,101185.03
2022-12-03T21:31:26.606Z,101187.28
2022-12-03T21:33:54.577Z,101196.38
2022-12-03T21:36:24.377Z,101190.03
2022-12-03T21:38:51.258Z,101194.75
2022-12-03T21:41:18.598Z,101193.09
2022-12-03T21:43:47.679Z,101191.97
2022-12-03T21:47:11.972Z,101186.16
2022-12-03T21:49:04.446Z,101185.03
2022-12-03T21:51:33.238Z,101193.63
2022-12-03T21:53:59.624Z,101189.22
2022-12-03T21:56:27.915Z,101190.88
2022-12-03T21:58:58.806Z,101184.53
2022-12-03T22:01:25.478Z,101177.06
2022-12-03T22:03:54.856Z,101193.63
2022-12-03T22:06:21.265Z,101185.34
2022-12-03T22:08:48.477Z,101187.28
2022-12-03T22:11:20.845Z,101185.34
2022-12-03T22:13:48.133Z,101181.78
2022-12-03T22:16:20.202Z,101182.06
2022-12-03T22:18:47.366Z,101185.34
2022-12-03T22:21:17.931Z,101183.41
2022-12-03T22:23:47.333Z,101188.91
2022-12-03T22:26:16.498Z,101186.97
2022-12-03T22:28:44.568Z,101184.22
2022-12-03T22:31:11.914Z,101177.91
2022-12-03T22:33:39.099Z,101177.63
2022-12-03T22:36:08.479Z,101175.69
2022-12-03T22:38:35.207Z,101173.75
2022-12-03T22:41:06.140Z,101183.13
2022-12-03T22:43:33.099Z,101175.38
2022-12-03T22:45:59.961Z,101179.78
2022-12-03T22:48:26.574Z,101173.44
2022-12-03T22:50:52.874Z,101170.69
2022-12-03T22:53:20.349Z,101170.69
2022-12-03T22:55:55.479Z,101166.28
2022-12-03T22:58:23.369Z,101176.19
2022-12-03T23:00:50.273Z,101160.47
2022-12-03T23:03:17.052Z,101160.47
2022-12-03T23:05:43.688Z,101163.22
2022-12-03T23:08:16.077Z,101158.00
2022-12-03T23:10:44.687Z,101156.59
2022-12-03T23:13:11.598Z,101161.00
2022-12-03T23:15:38.419Z,101150.00
2022-12-03T23:18:05.345Z,101153.25
2022-12-03T23:20:31.931Z,101147.75
2022-12-03T23:22:59.571Z,101150.50
2022-12-03T23:25:25.966Z,101145.81
2022-12-03T23:27:52.365Z,101145.81
2022-12-03T23:30:18.752Z,101148.56
2022-12-03T23:32:45.205Z,101145.81
2022-12-03T23:35:13.231Z,101150.81
2022-12-03T23:37:43.019Z,101147.22
2022-12-03T23:40:10.734Z,101143.63
2022-12-03T23:42:37.076Z,101140.06
2022-12-03T23:45:03.846Z,101141.72
2022-12-03T23:47:30.649Z,101141.72
2022-12-03T23:49:57.418Z,101138.41
2022-12-03T23:52:24.380Z,101131.25
2022-12-03T23:54:51.533Z,101129.63
2022-12-03T23:57:18.300Z,101131.56
2022-12-03T23:59:44.745Z,101128.81
